Time;durP1;ratioP1;P1;durP2;ratioP2;P2;SDS_P1;SDS_P2;PMS_P1;PMS_P2;Temp;Humidity;BMP_temperature;BMP_pressure;BME280_temperature;BME280_humidity;BME280_pressure;Samples;Min_cycle;Max_cycle;Signal;HPM_P1;HPM_P2
2023/03/05 00:01:27;;;;;;;7.20;2.50;;;4.20;1.00;;;;;;4979949;28;20278;-62
2023/03/05 00:03:55;;;;;;;11.57;3.13;;;4.30;1.00;;;;;;4995401;28;20395;-64
2023/03/05 00:06:26;;;;;;;13.00;2.60;;;4.30;1.00;;;;;;4979545;28;20781;-61
2023/03/05 00:08:53;;;;;;;11.50;2.70;;;4.20;1.00;;;;;;4979862;28;20577;-59
2023/03/05 00:11:21;;;;;;;10.33;2.87;;;4.20;1.00;;;;;;4981004;28;20203;-61
2023/03/05 00:13:51;;;;;;;14.40;3.90;;;4.20;1.00;;;;;;4980490;28;20280;-60
2023/03/05 00:16:19;;;;;;;5.67;2.57;;;4.20;1.00;;;;;;4981299;28;20221;-61
2023/03/05 00:18:46;;;;;;;12.23;2.70;;;4.20;1.00;;;;;;4981246;28;20202;-60
2023/03/05 00:21:18;;;;;;;12.30;2.93;;;4.20;1.00;;;;;;4979041;28;20574;-59
2023/03/05 00:23:45;;;;;;;9.87;3.10;;;4.20;1.00;;;;;;4980534;28;20602;-59
2023/03/05 00:26:12;;;;;;;9.47;3.17;;;4.20;1.00;;;;;;4980238;28;20582;-61
2023/03/05 00:28:39;;;;;;;8.53;2.40;;;4.20;1.00;;;;;;4979657;28;20669;-61
2023/03/05 00:31:06;;;;;;;16.53;3.20;;;4.20;1.00;;;;;;4981433;28;20264;-60
2023/03/05 00:33:33;;;;;;;10.30;2.90;;;4.20;1.00;;;;;;4962974;28;20300;-60
2023/03/05 00:36:05;;;;;;;11.50;3.30;;;4.20;1.00;;;;;;4982084;28;20190;-61
2023/03/05 00:38:33;;;;;;;13.33;3.10;;;4.10;1.00;;;;;;4981480;28;20671;-60
2023/03/05 00:41:00;;;;;;;7.33;2.53;;;4.10;1.00;;;;;;4985274;28;20669;-61
2023/03/05 00:43:28;;;;;;;10.73;2.77;;;4.10;1.00;;;;;;4979874;28;20225;-60
2023/03/05 00:45:55;;;;;;;12.90;2.67;;;4.10;1.00;;;;;;4994599;28;20301;-61
2023/03/05 00:48:22;;;;;;;9.03;3.00;;;4.10;1.00;;;;;;4979569;28;20763;-61
2023/03/05 00:50:49;;;;;;;7.20;2.80;;;4.10;1.00;;;;;;4981463;28;20288;-60
2023/03/05 00:53:16;;;;;;;9.13;2.90;;;4.10;1.00;;;;;;4977310;28;20292;-58
2023/03/05 00:55:43;;;;;;;13.03;3.07;;;4.10;1.00;;;;;;4978713;28;20201;-59
2023/03/05 00:58:10;;;;;;;10.63;2.97;;;4.10;1.00;;;;;;4981000;28;20199;-59
2023/03/05 01:00:37;;;;;;;11.00;2.67;;;4.00;1.00;;;;;;4986604;28;20210;-60
2023/03/05 01:03:04;;;;;;;7.40;3.43;;;4.00;1.00;;;;;;4980120;28;20194;-60
2023/03/05 01:05:32;;;;;;;10.80;3.87;;;4.10;1.00;;;;;;4976897;28;20266;-58
2023/03/05 01:07:59;;;;;;;12.03;3.27;;;4.10;1.00;;;;;;4985990;28;20228;-59
2023/03/05 01:10:27;;;;;;;12.33;3.50;;;4.00;1.00;;;;;;4977777;28;20194;-59
2023/03/05 01:12:56;;;;;;;15.07;3.10;;;4.10;1.00;;;;;;4983314;28;20208;-62
2023/03/05 01:15:24;;;;;;;17.57;2.97;;;4.00;1.00;;;;;;4978700;28;20201;-61
2023/03/05 01:17:51;;;;;;;14.40;3.00;;;4.00;1.00;;;;;;4979157;28;20216;-61
2023/03/05 01:20:20;;;;;;;8.17;3.63;;;4.00;1.00;;;;;;4986251;28;20206;-59
2023/03/05 01:22:48;;;;;;;7.23;2.40;;;4.00;1.00;;;;;;4994322;28;20216;-61
2023/03/05 01:25:16;;;;;;;10.73;3.00;;;4.00;1.00;;;;;;4986997;28;20233;-61
2023/03/05 01:27:43;;;;;;;14.70;3.50;;;4.00;1.00;;;;;;4978520;28;20302;-60
2023/03/05 01:30:12;;;;;;;14.13;4.13;;;4.00;1.00;;;;;;4985958;28;20293;-61
2023/03/05 01:32:39;;;;;;;15.23;3.97;;;4.00;1.00;;;;;;4995833;28;20208;-60
2023/03/05 01:35:07;;;;;;;11.97;3.50;;;4.00;1.00;;;;;;4977660;28;20275;-62
2023/03/05 01:37:34;;;;;;;11.40;4.70;;;4.00;1.00;;;;;;4986418;28;20248;-60
2023/03/05 01:40:01;;;;;;;9.67;3.50;;;3.90;1.00;;;;;;4978525;28;20670;-60
2023/03/05 01:42:28;;;;;;;11.70;2.97;;;4.00;1.00;;;;;;4978737;28;20244;-59
2023/03/05 01:45:14;;;;;;;14.60;3.60;;;3.90;1.00;;;;;;4980439;28;20202;-61
2023/03/05 01:47:42;;;;;;;8.17;2.80;;;3.90;1.00;;;;;;4961882;28;20206;-60
2023/03/05 01:50:16;;;;;;;12.90;3.30;;;3.90;1.00;;;;;;4978785;28;20691;-61
2023/03/05 01:52:49;;;;;;;10.47;3.13;;;3.90;1.00;;;;;;4979879;28;20240;-61
2023/03/05 01:55:21;;;;;;;10.67;2.60;;;3.90;1.00;;;;;;4977999;28;20570;-60
2023/03/05 01:58:02;;;;;;;11.93;3.63;;;3.90;1.00;;;;;;4979870;28;20249;-61
2023/03/05 02:00:51;;;;;;;12.93;4.70;;;3.80;1.00;;;;;;4977075;28;20602;-60
2023/03/05 02:03:19;;;;;;;8.80;3.13;;;3.80;1.00;;;;;;4985473;28;20601;-62
2023/03/05 02:05:46;;;;;;;13.77;3.53;;;3.80;1.00;;;;;;4980038;28;20285;-62
2023/03/05 02:08:17;;;;;;;10.10;3.23;;;3.80;1.00;;;;;;4995342;28;20272;-61
2023/03/05 02:10:45;;;;;;;9.40;2.97;;;3.80;1.00;;;;;;4979928;28;20559;-64
2023/03/05 02:13:24;;;;;;;10.73;3.17;;;3.80;1.00;;;;;;4985431;28;20202;-65
2023/03/05 02:15:53;;;;;;;9.57;3.03;;;3.80;1.00;;;;;;4977834;28;20763;-61
2023/03/05 02:18:21;;;;;;;13.57;3.40;;;3.80;1.00;;;;;;4978237;28;20301;-61
2023/03/05 02:20:51;;;;;;;13.97;3.73;;;3.80;1.00;;;;;;4978196;28;20216;-62
2023/03/05 02:23:21;;;;;;;10.03;3.00;;;3.80;1.00;;;;;;4978780;28;20198;-60
2023/03/05 02:25:48;;;;;;;11.73;3.47;;;3.80;1.00;;;;;;4978912;28;20212;-61
2023/03/05 02:28:21;;;;;;;8.07;3.33;;;3.80;1.00;;;;;;4976992;28;20225;-63
2023/03/05 02:30:49;;;;;;;11.77;3.27;;;3.80;1.00;;;;;;4979000;28;20191;-62
2023/03/05 02:33:23;;;;;;;17.67;3.37;;;3.80;1.00;;;;;;4979436;28;20234;-62
2023/03/05 02:35:50;;;;;;;6.60;2.80;;;3.80;1.00;;;;;;4979049;28;20249;-60
2023/03/05 02:38:20;;;;;;;10.53;3.17;;;3.80;1.00;;;;;;4977839;28;20230;-61
2023/03/05 02:40:47;;;;;;;14.50;3.17;;;3.80;1.00;;;;;;4976298;28;20383;-60
2023/03/05 02:43:15;;;;;;;14.27;3.80;;;3.80;1.00;;;;;;4969256;28;20198;-61
2023/03/05 02:45:43;;;;;;;13.37;3.43;;;3.70;1.00;;;;;;4977370;28;20685;-61
2023/03/05 02:48:10;;;;;;;11.67;3.17;;;3.70;1.00;;;;;;4978597;28;20205;-63
2023/03/05 02:50:38;;;;;;;9.40;3.20;;;3.70;1.00;;;;;;4977376;28;20197;-61
2023/03/05 02:53:05;;;;;;;9.60;3.10;;;3.70;1.00;;;;;;4977116;28;20273;-62
2023/03/05 02:55:33;;;;;;;12.27;3.73;;;3.70;1.00;;;;;;4975903;28;20209;-61
2023/03/05 02:58:00;;;;;;;9.27;2.90;;;3.70;1.00;;;;;;4983757;28;20252;-60
2023/03/05 03:00:28;;;;;;;9.57;3.17;;;3.60;1.00;;;;;;4960251;28;20206;-61
2023/03/05 03:02:55;;;;;;;9.70;3.43;;;3.70;1.00;;;;;;4979604;28;20256;-63
2023/03/05 03:05:22;;;;;;;12.53;3.20;;;3.70;1.00;;;;;;4984742;28;20299;-62
2023/03/05 03:07:49;;;;;;;16.03;3.77;;;3.70;1.00;;;;;;4980316;28;20557;-62
2023/03/05 03:10:17;;;;;;;12.20;3.17;;;3.70;1.00;;;;;;4980983;28;20220;-61
2023/03/05 03:12:44;;;;;;;12.97;3.77;;;3.70;1.00;;;;;;4980208;28;20194;-61
2023/03/05 03:15:14;;;;;;;12.70;3.60;;;3.70;1.00;;;;;;4980940;28;20214;-61
2023/03/05 03:17:42;;;;;;;7.60;3.87;;;3.70;1.00;;;;;;4981316;28;20626;-62
2023/03/05 03:20:12;;;;;;;8.43;4.33;;;3.70;1.00;;;;;;4982549;28;21390;-60
2023/03/05 03:22:41;;;;;;;10.20;3.43;;;3.70;1.00;;;;;;4983339;28;20202;-67
2023/03/05 03:25:17;;;;;;;9.10;3.20;;;3.70;1.00;;;;;;4983398;28;20208;-66
2023/03/05 03:27:44;;;;;;;11.73;3.57;;;3.60;1.00;;;;;;4984152;28;20361;-60
2023/03/05 03:30:12;;;;;;;8.60;2.90;;;3.60;1.00;;;;;;4982533;28;20214;-60
2023/03/05 03:32:39;;;;;;;12.80;3.40;;;3.60;1.00;;;;;;4981589;28;20293;-66
2023/03/05 03:35:07;;;;;;;8.27;3.17;;;3.60;1.00;;;;;;4981254;28;20198;-61
2023/03/05 03:37:34;;;;;;;9.47;3.03;;;3.60;1.00;;;;;;4981347;28;20615;-62
2023/03/05 03:40:04;;;;;;;13.03;3.40;;;3.50;1.00;;;;;;4987942;28;20553;-70
2023/03/05 03:42:32;;;;;;;11.90;3.70;;;3.50;1.00;;;;;;4987194;28;20216;-61
2023/03/05 03:45:01;;;;;;;11.77;3.83;;;3.50;1.00;;;;;;4979931;28;20202;-68
2023/03/05 03:47:29;;;;;;;9.77;2.80;;;3.40;1.00;;;;;;4980564;28;20603;-67
2023/03/05 03:49:57;;;;;;;9.90;3.93;;;3.40;2.20;;;;;;4980515;28;20694;-66
2023/03/05 03:52:25;;;;;;;12.87;3.73;;;3.50;5.50;;;;;;4981709;28;20318;-66
2023/03/05 03:54:54;;;;;;;13.17;3.50;;;3.50;6.10;;;;;;4981492;28;20248;-66
2023/03/05 03:57:21;;;;;;;12.97;4.17;;;3.50;1.00;;;;;;4981475;28;20202;-66
2023/03/05 03:59:49;;;;;;;14.63;4.53;;;3.60;1.00;;;;;;4978658;28;20206;-69
2023/03/05 04:02:16;;;;;;;13.07;3.03;;;3.60;1.00;;;;;;4982331;28;20535;-65
2023/03/05 04:04:43;;;;;;;18.40;4.30;;;3.60;1.00;;;;;;4979930;28;20284;-67
2023/03/05 04:07:10;;;;;;;8.50;3.40;;;3.60;1.00;;;;;;4978678;28;20715;-59
2023/03/05 04:09:37;;;;;;;10.63;3.13;;;3.60;1.00;;;;;;4979868;28;20553;-61
2023/03/05 04:12:05;;;;;;;13.03;3.30;;;3.60;1.00;;;;;;4979287;28;20681;-60
2023/03/05 04:14:32;;;;;;;9.07;3.10;;;3.70;1.00;;;;;;4979749;28;20203;-59
2023/03/05 04:16:59;;;;;;;8.30;2.90;;;3.70;1.00;;;;;;4980519;28;20208;-61
2023/03/05 04:19:27;;;;;;;9.73;4.23;;;3.60;15.60;;;;;;4980929;28;20234;-60
2023/03/05 04:21:54;;;;;;;8.93;3.37;;;3.70;29.00;;;;;;4980032;28;20292;-66
2023/03/05 04:24:21;;;;;;;7.70;2.90;;;3.60;39.70;;;;;;4980155;28;20293;-66
2023/03/05 04:26:48;;;;;;;11.37;3.37;;;3.60;53.90;;;;;;4981471;28;20213;-61
2023/03/05 04:29:15;;;;;;;10.60;3.63;;;3.60;65.40;;;;;;4979274;28;20352;-61
2023/03/05 04:31:42;;;;;;;7.27;3.27;;;3.60;74.10;;;;;;4978707;28;20693;-63
2023/03/05 04:34:09;;;;;;;12.27;3.70;;;3.60;86.90;;;;;;4979108;28;20202;-66
2023/03/05 04:36:38;;;;;;;10.90;3.20;;;3.60;99.80;;;;;;4980283;28;20643;-67
2023/03/05 04:39:05;;;;;;;12.67;3.40;;;3.60;99.90;;;;;;4979002;28;20217;-69
2023/03/05 04:41:32;;;;;;;9.37;3.23;;;3.60;99.90;;;;;;4980474;28;20692;-68
2023/03/05 04:43:58;;;;;;;13.00;3.27;;;3.60;99.90;;;;;;4980271;28;20253;-67
2023/03/05 04:46:25;;;;;;;10.20;3.17;;;3.50;99.90;;;;;;4981623;28;20202;-69
2023/03/05 04:48:53;;;;;;;5.03;2.93;;;3.50;99.90;;;;;;4980753;28;20619;-65
2023/03/05 04:51:20;;;;;;;7.20;3.50;;;3.50;99.90;;;;;;4981142;28;20595;-60
2023/03/05 04:53:47;;;;;;;11.63;3.90;;;3.50;99.90;;;;;;4981877;28;20221;-61
2023/03/05 04:56:14;;;;;;;11.93;3.50;;;3.40;99.90;;;;;;4979512;28;20243;-60
2023/03/05 04:58:41;;;;;;;13.03;4.47;;;3.40;99.90;;;;;;4978115;28;20308;-60
2023/03/05 05:01:08;;;;;;;14.57;4.20;;;3.30;99.90;;;;;;4979946;28;20283;-61
2023/03/05 05:03:35;;;;;;;12.17;4.17;;;3.30;99.90;;;;;;4979869;28;21113;-61
2023/03/05 05:06:02;;;;;;;13.53;4.47;;;3.30;99.90;;;;;;4979642;28;20257;-62
2023/03/05 05:08:29;;;;;;;15.97;5.00;;;3.30;99.90;;;;;;4987455;28;20202;-62
2023/03/05 05:11:01;;;;;;;13.20;4.03;;;3.30;99.90;;;;;;4980440;28;20282;-62
2023/03/05 05:13:28;;;;;;;11.60;3.13;;;3.30;99.90;;;;;;4979499;28;20194;-61
2023/03/05 05:15:56;;;;;;;11.13;3.10;;;3.30;99.90;;;;;;4980518;28;20190;-61
2023/03/05 05:18:23;;;;;;;8.50;3.20;;;3.30;99.90;;;;;;4979118;28;20193;-60
2023/03/05 05:20:50;;;;;;;11.30;3.77;;;3.30;99.90;;;;;;4980021;28;20201;-60
2023/03/05 05:23:18;;;;;;;10.17;2.97;;;3.30;99.90;;;;;;4979532;28;20201;-60
2023/03/05 05:25:44;;;;;;;11.60;3.10;;;3.30;99.90;;;;;;4979186;28;20210;-61
2023/03/05 05:28:11;;;;;;;11.57;2.73;;;3.30;99.90;;;;;;4978364;28;20249;-66
2023/03/05 05:30:38;;;;;;;18.73;3.60;;;3.30;99.90;;;;;;4977967;28;20727;-67
2023/03/05 05:33:05;;;;;;;10.50;3.17;;;3.30;99.90;;;;;;4979698;28;20317;-67
2023/03/05 05:35:32;;;;;;;8.03;2.93;;;3.20;99.90;;;;;;4978189;28;20221;-66
2023/03/05 05:37:59;;;;;;;13.47;4.13;;;3.20;99.90;;;;;;4978845;28;20329;-66
2023/03/05 05:40:26;;;;;;;6.67;2.60;;;3.20;99.90;;;;;;4979972;28;20565;-62
2023/03/05 05:42:53;;;;;;;9.97;2.83;;;3.20;99.90;;;;;;4979688;28;20289;-63
2023/03/05 05:45:20;;;;;;;10.53;3.00;;;3.20;99.90;;;;;;4977936;28;20741;-61
2023/03/05 05:47:47;;;;;;;11.90;3.10;;;3.20;99.90;;;;;;4978650;28;20569;-62
2023/03/05 05:50:15;;;;;;;8.83;3.00;;;3.20;99.90;;;;;;4979627;28;20577;-61
2023/03/05 05:52:42;;;;;;;8.77;2.90;;;3.20;99.90;;;;;;4978128;28;20497;-61
2023/03/05 05:55:09;;;;;;;4.97;2.80;;;3.10;99.90;;;;;;4979425;28;20647;-60
2023/03/05 05:57:36;;;;;;;7.43;3.10;;;3.20;99.90;;;;;;4979432;28;20282;-60
2023/03/05 06:00:06;;;;;;;9.73;3.60;;;3.20;99.90;;;;;;4977359;28;20210;-60
2023/03/05 06:02:41;;;;;;;9.93;3.00;;;3.20;99.90;;;;;;4980411;28;20225;-60
2023/03/05 06:05:12;;;;;;;10.03;3.30;;;3.20;99.90;;;;;;4978287;28;20234;-60
2023/03/05 06:07:39;;;;;;;14.43;3.60;;;3.30;99.90;;;;;;4994863;28;20230;-59
2023/03/05 06:10:08;;;;;;;10.63;3.50;;;3.20;99.90;;;;;;4979834;28;20304;-69
2023/03/05 06:12:35;;;;;;;6.50;2.67;;;3.20;99.90;;;;;;4978419;28;20245;-67
2023/03/05 06:15:02;;;;;;;6.83;2.90;;;3.20;99.90;;;;;;4979895;28;20198;-70
2023/03/05 06:17:29;;;;;;;9.33;3.57;;;3.20;99.90;;;;;;4979509;28;20292;-68
2023/03/05 06:19:58;;;;;;;10.67;3.80;;;3.20;99.90;;;;;;4978975;28;20202;-66
2023/03/05 06:22:25;;;;;;;5.77;3.60;;;3.20;99.90;;;;;;4977818;28;20208;-65
2023/03/05 06:24:52;;;;;;;6.73;3.90;;;3.20;99.90;;;;;;4977581;28;20202;-65
2023/03/05 06:27:19;;;;;;;11.20;4.13;;;3.20;99.90;;;;;;4978778;28;20210;-61
2023/03/05 06:29:46;;;;;;;12.40;5.30;;;3.20;99.90;;;;;;4979177;28;20269;-59
2023/03/05 06:32:12;;;;;;;6.70;4.57;;;3.30;99.90;;;;;;4979539;28;20198;-61
2023/03/05 06:34:39;;;;;;;10.43;5.93;;;3.30;99.90;;;;;;4979563;28;20643;-59
2023/03/05 06:37:06;;;;;;;12.00;5.63;;;3.40;99.90;;;;;;4977028;28;20560;-59
2023/03/05 06:39:33;;;;;;;13.63;5.87;;;3.30;99.90;;;;;;4978042;28;20205;-61
2023/03/05 06:42:00;;;;;;;8.70;5.77;;;3.40;99.90;;;;;;4981792;28;20209;-59
2023/03/05 06:44:27;;;;;;;9.40;5.50;;;3.40;99.90;;;;;;4982781;28;20204;-60
2023/03/05 06:46:54;;;;;;;12.67;6.13;;;3.40;99.90;;;;;;4982246;28;20241;-60
2023/03/05 06:49:21;;;;;;;12.03;5.33;;;3.50;99.90;;;;;;4982342;28;20825;-60
2023/03/05 06:51:48;;;;;;;14.03;6.20;;;3.50;99.90;;;;;;4988323;28;20404;-61
2023/03/05 06:54:16;;;;;;;12.47;5.97;;;3.50;99.90;;;;;;4983427;28;20284;-61
2023/03/05 06:56:45;;;;;;;11.57;5.77;;;3.60;99.90;;;;;;4982900;28;20716;-60
2023/03/05 06:59:14;;;;;;;13.83;7.17;;;3.60;99.90;;;;;;4981514;28;20197;-62
2023/03/05 07:01:42;;;;;;;9.77;5.23;;;3.60;99.90;;;;;;4982641;28;20672;-60
2023/03/05 07:04:11;;;;;;;15.27;6.93;;;3.60;99.90;;;;;;4980065;28;20287;-60
2023/03/05 07:06:40;;;;;;;13.83;6.40;;;3.60;99.90;;;;;;4982172;28;20677;-59
2023/03/05 07:09:11;;;;;;;16.00;6.30;;;3.70;99.90;;;;;;4982063;28;20193;-58
2023/03/05 07:11:38;;;;;;;10.43;5.40;;;3.70;99.90;;;;;;4981283;28;20197;-59
2023/03/05 07:14:05;;;;;;;11.03;5.37;;;3.70;99.90;;;;;;4981661;28;20597;-58
2023/03/05 07:16:33;;;;;;;19.13;6.20;;;3.80;99.90;;;;;;4982095;28;20613;-61
2023/03/05 07:19:02;;;;;;;12.07;6.10;;;3.90;99.90;;;;;;4997740;28;20203;-61
2023/03/05 07:21:32;;;;;;;16.57;5.87;;;3.80;99.90;;;;;;4995930;28;20216;-59
2023/03/05 07:24:00;;;;;;;14.23;5.47;;;3.90;99.90;;;;;;4982104;28;20325;-60
2023/03/05 07:26:29;;;;;;;14.53;6.10;;;3.90;99.90;;;;;;4983426;28;20459;-61
2023/03/05 07:28:56;;;;;;;13.30;7.27;;;3.90;99.90;;;;;;4972255;28;20206;-61
2023/03/05 07:31:29;;;;;;;14.20;6.67;;;4.00;99.90;;;;;;4982199;28;20229;-58
2023/03/05 07:33:58;;;;;;;15.83;6.83;;;4.00;99.90;;;;;;4981139;28;20201;-60
2023/03/05 07:36:26;;;;;;;9.73;6.27;;;4.10;99.90;;;;;;4979440;28;20290;-61
2023/03/05 07:38:53;;;;;;;13.03;7.10;;;4.10;99.90;;;;;;4983313;28;20278;-61
2023/03/05 07:41:22;;;;;;;11.20;6.50;;;4.10;99.90;;;;;;4981528;28;20226;-61
2023/03/05 07:43:51;;;;;;;16.17;8.20;;;4.00;99.90;;;;;;4979878;28;20202;-61
2023/03/05 07:46:21;;;;;;;15.33;8.23;;;4.10;99.90;;;;;;4979848;28;20265;-60
2023/03/05 07:48:48;;;;;;;11.13;5.40;;;4.20;99.90;;;;;;4964560;28;20245;-61
2023/03/05 07:51:18;;;;;;;12.30;5.90;;;4.30;99.20;;;;;;4980627;28;20241;-64
2023/03/05 07:53:47;;;;;;;10.47;7.40;;;4.20;95.40;;;;;;4979108;28;20202;-59
2023/03/05 07:56:25;;;;;;;11.73;6.43;;;4.30;99.90;;;;;;4981626;28;20186;-58
2023/03/05 07:58:52;;;;;;;13.17;6.33;;;4.50;99.90;;;;;;4979630;28;20204;-62
2023/03/05 08:01:19;;;;;;;9.67;6.00;;;4.50;97.50;;;;;;4979102;28;20240;-60
2023/03/05 08:03:46;;;;;;;12.90;6.50;;;4.50;79.30;;;;;;4986246;28;20260;-62
2023/03/05 08:06:13;;;;;;;10.47;6.63;;;4.50;73.50;;;;;;4986250;28;20673;-59
2023/03/05 08:08:40;;;;;;;13.40;6.27;;;4.50;58.80;;;;;;4980518;28;20225;-61
2023/03/05 08:11:13;;;;;;;13.17;6.67;;;4.40;64.30;;;;;;4981000;28;20210;-59
2023/03/05 08:13:41;;;;;;;15.87;6.90;;;4.40;83.70;;;;;;4986332;28;20198;-61
2023/03/05 08:16:12;;;;;;;14.13;6.47;;;4.40;95.10;;;;;;4979511;28;20201;-62
2023/03/05 08:18:39;;;;;;;11.10;6.60;;;4.40;99.90;;;;;;4979876;28;20284;-61
2023/03/05 08:21:13;;;;;;;11.27;6.53;;;4.40;95.00;;;;;;4979310;28;20264;-60
2023/03/05 08:23:40;;;;;;;11.80;6.57;;;4.40;87.60;;;;;;4979064;28;20289;-59
2023/03/05 08:26:12;;;;;;;12.67;6.40;;;4.40;88.40;;;;;;4979265;28;20205;-61
2023/03/05 08:28:39;;;;;;;10.10;5.70;;;4.40;87.60;;;;;;4980781;28;20225;-61
2023/03/05 08:31:10;;;;;;;7.47;5.37;;;4.40;66.00;;;;;;4979564;28;20629;-61
2023/03/05 08:33:38;;;;;;;11.00;5.67;;;4.30;56.10;;;;;;4980148;28;20685;-62
2023/03/05 08:36:06;;;;;;;11.73;5.77;;;4.50;65.50;;;;;;4980377;28;20319;-61
2023/03/05 08:38:33;;;;;;;10.20;5.27;;;4.50;70.60;;;;;;4980500;28;20201;-60
2023/03/05 08:41:00;;;;;;;14.77;5.80;;;4.60;61.20;;;;;;4981665;28;20193;-63
2023/03/05 08:43:27;;;;;;;10.50;5.70;;;4.70;28.00;;;;;;4980660;28;20202;-60
2023/03/05 08:45:54;;;;;;;14.47;5.70;;;4.70;12.00;;;;;;4980583;28;20261;-60
2023/03/05 08:48:22;;;;;;;9.63;4.93;;;4.90;1.00;;;;;;4980701;28;20258;-62
2023/03/05 08:50:49;;;;;;;13.30;6.03;;;4.90;1.00;;;;;;4980445;28;20209;-61
2023/03/05 08:53:18;;;;;;;7.70;5.03;;;4.90;1.00;;;;;;4980634;28;20221;-62
2023/03/05 08:55:56;;;;;;;12.57;5.77;;;4.80;1.00;;;;;;4971113;28;20193;-61
2023/03/05 08:58:24;;;;;;;6.37;5.00;;;4.60;1.00;;;;;;4978895;28;20214;-59
2023/03/05 09:00:51;;;;;;;10.70;4.93;;;4.80;1.00;;;;;;4979124;28;20580;-61
2023/03/05 09:03:18;;;;;;;8.90;4.30;;;4.90;1.00;;;;;;4984072;28;20233;-64
2023/03/05 09:05:45;;;;;;;9.97;4.80;;;4.90;1.00;;;;;;4978807;28;20214;-61
2023/03/05 09:08:12;;;;;;;11.17;4.40;;;4.90;1.00;;;;;;4979975;28;20653;-60
2023/03/05 09:10:41;;;;;;;5.93;4.43;;;4.90;1.00;;;;;;4981181;28;20206;-62
2023/03/05 09:13:09;;;;;;;8.87;4.87;;;4.80;1.00;;;;;;4979404;28;20198;-59
2023/03/05 09:15:36;;;;;;;7.27;4.60;;;4.80;1.00;;;;;;4977094;28;20233;-60
2023/03/05 09:18:04;;;;;;;7.33;4.20;;;4.80;1.00;;;;;;4979354;28;20496;-68
2023/03/05 09:20:32;;;;;;;8.30;4.07;;;4.80;1.00;;;;;;4980156;28;20194;-68
2023/03/05 09:23:00;;;;;;;9.97;4.53;;;4.70;1.00;;;;;;4979523;28;20280;-65
2023/03/05 09:25:31;;;;;;;4.83;3.47;;;4.80;1.00;;;;;;4962207;28;20248;-66
2023/03/05 09:27:58;;;;;;;10.10;5.20;;;4.90;1.00;;;;;;4979839;28;20662;-67
2023/03/05 09:30:25;;;;;;;7.37;4.53;;;5.10;1.00;;;;;;4978289;28;20720;-68
2023/03/05 09:32:52;;;;;;;7.63;3.90;;;5.30;1.00;;;;;;4978029;28;20202;-67
2023/03/05 09:35:19;;;;;;;5.00;3.87;;;5.60;1.00;;;;;;4980559;28;20190;-61
2023/03/05 09:37:46;;;;;;;15.30;10.93;;;5.90;1.00;;;;;;4986833;28;20293;-62
2023/03/05 09:40:16;;;;;;;8.57;4.90;;;6.20;1.00;;;;;;4980921;28;20678;-61
2023/03/05 09:42:46;;;;;;;11.03;7.10;;;6.60;1.00;;;;;;4980369;28;20229;-61
2023/03/05 09:45:26;;;;;;;5.23;3.20;;;6.80;1.00;;;;;;4986274;28;20201;-61
2023/03/05 09:47:56;;;;;;;6.77;3.40;;;7.00;1.00;;;;;;4995809;28;20707;-62
2023/03/05 09:50:35;;;;;;;6.57;3.87;;;6.80;1.00;;;;;;4978737;28;20738;-63
2023/03/05 09:53:14;;;;;;;4.83;3.30;;;6.70;1.00;;;;;;4963152;28;20213;-62
2023/03/05 09:55:51;;;;;;;6.03;3.30;;;7.00;1.00;;;;;;4986100;28;20745;-61
2023/03/05 09:58:38;;;;;;;7.07;3.80;;;7.60;1.00;;;;;;4965030;28;20568;-61
2023/03/05 10:01:14;;;;;;;7.33;2.70;;;8.70;1.00;;;;;;4978086;28;20223;-62
2023/03/05 10:03:58;;;;;;;10.87;3.20;;;9.70;1.00;;;;;;4986711;28;20322;-62
2023/03/05 10:06:35;;;;;;;6.67;3.00;;;11.20;1.00;;;;;;4986813;28;20534;-63
2023/03/05 10:09:09;;;;;;;8.57;3.40;;;12.20;1.00;;;;;;4984670;28;20221;-63
2023/03/05 10:11:48;;;;;;;9.70;4.37;;;12.10;1.00;;;;;;4980343;28;20263;-63
2023/03/05 10:14:23;;;;;;;8.47;2.80;;;11.60;1.00;;;;;;4977460;28;20713;-61
2023/03/05 10:16:53;;;;;;;4.20;2.80;;;9.90;1.00;;;;;;4966921;28;20193;-63
2023/03/05 10:19:38;;;;;;;6.10;3.07;;;9.00;1.00;;;;;;4981720;28;20182;-62
2023/03/05 10:22:21;;;;;;;7.30;4.23;;;8.70;1.00;;;;;;4998554;28;20284;-62
2023/03/05 10:25:15;;;;;;;5.43;3.07;;;9.60;1.00;;;;;;4991966;28;20284;-62
2023/03/05 10:27:51;;;;;;;8.70;4.17;;;10.20;1.00;;;;;;4985384;28;20253;-61
2023/03/05 10:30:53;;;;;;;7.67;4.20;;;11.00;1.00;;;;;;4987520;28;20755;-63
2023/03/05 10:33:52;;;;;;;4.53;3.00;;;10.30;1.00;;;;;;4933854;28;20237;-62
2023/03/05 10:36:25;;;;;;;6.13;3.20;;;8.90;1.00;;;;;;4962358;28;20453;-68
2023/03/05 10:39:17;;;;;;;7.17;3.70;;;8.50;1.00;;;;;;4953250;29;20729;-70
2023/03/05 10:42:19;;;;;;;8.20;2.80;;;8.10;1.00;;;;;;4945092;28;20219;-67
2023/03/05 10:44:55;;;;;;;7.17;3.50;;;7.90;1.00;;;;;;4945152;29;20256;-68
2023/03/05 10:47:45;;;;;;;4.50;1.97;;;7.40;1.00;;;;;;4975808;28;20271;-69
2023/03/05 10:50:18;;;;;;;4.03;2.10;;;6.60;1.00;;;;;;4945349;28;20501;-67
2023/03/05 10:52:50;;;;;;;3.77;2.40;;;6.20;1.00;;;;;;4952062;28;20199;-68
2023/03/05 10:55:21;;;;;;;3.03;2.50;;;6.20;1.00;;;;;;4950054;28;20215;-69
2023/03/05 10:57:48;;;;;;;6.03;2.80;;;6.30;1.00;;;;;;4951128;28;20210;-66
2023/03/05 11:00:24;;;;;;;3.70;2.30;;;6.60;1.00;;;;;;4955700;28;20200;-63
2023/03/05 11:02:55;;;;;;;5.40;3.30;;;7.10;1.00;;;;;;4977464;28;20250;-61
2023/03/05 11:05:38;;;;;;;5.43;2.47;;;7.20;1.00;;;;;;4951569;29;20313;-62
2023/03/05 11:08:22;;;;;;;4.97;3.67;;;7.10;1.00;;;;;;4976968;28;20254;-60
2023/03/05 11:11:08;;;;;;;6.17;3.00;;;6.70;1.00;;;;;;4975805;28;20231;-61
2023/03/05 11:13:56;;;;;;;5.47;2.67;;;6.50;1.00;;;;;;4945405;28;20230;-66
2023/03/05 11:16:30;;;;;;;5.43;2.57;;;6.40;1.00;;;;;;4946554;28;20214;-61
2023/03/05 11:19:15;;;;;;;5.73;3.20;;;6.40;1.00;;;;;;4944571;29;20211;-62
2023/03/05 11:21:45;;;;;;;4.57;3.23;;;6.60;1.00;;;;;;4946563;28;20198;-62
2023/03/05 11:24:17;;;;;;;5.40;2.83;;;7.00;1.00;;;;;;4944561;29;20234;-63
2023/03/05 11:26:52;;;;;;;4.77;2.73;;;7.60;1.00;;;;;;4945984;28;20671;-62
2023/03/05 11:29:31;;;;;;;7.23;3.20;;;8.20;1.00;;;;;;4972668;28;20199;-66
2023/03/05 11:32:27;;;;;;;3.70;2.67;;;8.10;1.00;;;;;;4942468;29;20706;-62
2023/03/05 11:34:56;;;;;;;5.13;2.83;;;7.80;1.00;;;;;;4943751;28;20210;-63
2023/03/05 11:37:27;;;;;;;3.90;2.40;;;7.50;1.00;;;;;;4972250;28;20482;-60
2023/03/05 11:40:17;;;;;;;6.07;2.23;;;6.80;1.00;;;;;;4975862;28;20275;-63
2023/03/05 11:42:46;;;;;;;1.73;1.17;;;6.30;1.00;;;;;;4972080;28;20287;-60
2023/03/05 11:45:18;;;;;;;3.17;1.27;;;6.10;1.00;;;;;;4954478;28;20289;-60
2023/03/05 11:47:49;;;;;;;5.43;1.70;;;5.70;1.00;;;;;;4941993;29;20247;-60
2023/03/05 11:50:21;;;;;;;2.87;1.20;;;5.50;1.00;;;;;;4941055;29;20200;-60
2023/03/05 11:52:59;;;;;;;2.27;1.60;;;5.50;1.00;;;;;;4924004;29;20241;-59
2023/03/05 11:55:31;;;;;;;4.30;1.70;;;5.70;1.00;;;;;;4940202;29;20298;-61
2023/03/05 11:58:26;;;;;;;4.13;2.27;;;5.80;1.00;;;;;;4939935;29;20227;-59
2023/03/05 12:00:54;;;;;;;3.00;1.60;;;5.90;1.00;;;;;;4957166;28;20752;-60
2023/03/05 12:03:31;;;;;;;4.67;1.83;;;6.10;1.00;;;;;;4938769;29;20630;-61
2023/03/05 12:06:14;;;;;;;3.50;1.50;;;5.90;1.00;;;;;;4956688;28;20209;-60
2023/03/05 12:08:45;;;;;;;2.87;1.53;;;5.70;1.00;;;;;;4961822;28;20242;-61
2023/03/05 12:11:24;;;;;;;4.07;2.17;;;5.40;1.00;;;;;;4937644;29;20699;-61
2023/03/05 12:14:14;;;;;;;2.93;2.30;;;5.40;1.00;;;;;;4956140;28;20263;-59
2023/03/05 12:16:49;;;;;;;8.03;5.00;;;5.40;1.00;;;;;;4940253;28;20729;-60
2023/03/05 12:19:40;;;;;;;5.43;3.00;;;5.40;1.00;;;;;;4941022;29;20201;-61
2023/03/05 12:22:21;;;;;;;5.40;2.97;;;5.40;1.00;;;;;;4954687;28;20567;-71
2023/03/05 12:24:50;;;;;;;7.00;3.33;;;5.50;1.00;;;;;;4971489;28;20199;-62
2023/03/05 12:27:36;;;;;;;3.43;2.17;;;5.60;1.00;;;;;;4940894;28;20617;-60
2023/03/05 12:30:04;;;;;;;9.53;3.67;;;5.70;1.00;;;;;;4939639;28;20208;-62
2023/03/05 12:32:32;;;;;;;5.87;3.10;;;5.80;1.00;;;;;;4940431;29;20636;-72
2023/03/05 12:35:05;;;;;;;5.70;3.33;;;5.70;1.00;;;;;;4971731;28;20295;-69
2023/03/05 12:37:32;;;;;;;10.93;5.80;;;6.00;1.00;;;;;;4939370;29;20281;-68
2023/03/05 12:40:18;;;;;;;3.87;2.17;;;6.10;1.00;;;;;;4939150;28;20575;-69
2023/03/05 12:42:47;;;;;;;3.00;2.00;;;6.40;1.00;;;;;;4938923;28;20872;-67
2023/03/05 12:45:15;;;;;;;2.83;1.93;;;6.60;1.00;;;;;;4940330;28;20746;-70
2023/03/05 12:47:46;;;;;;;4.77;1.50;;;7.10;1.00;;;;;;4940426;29;20223;-70
2023/03/05 12:50:25;;;;;;;4.90;1.60;;;7.60;1.00;;;;;;4936902;29;20196;-70
2023/03/05 12:53:18;;;;;;;3.50;1.90;;;8.20;1.00;;;;;;4938515;29;20281;-68
2023/03/05 12:55:59;;;;;;;5.27;1.50;;;8.70;1.00;;;;;;4937652;29;20571;-68
2023/03/05 12:58:52;;;;;;;2.53;1.37;;;8.90;1.00;;;;;;4938862;28;20741;-68
2023/03/05 13:01:32;;;;;;;2.47;1.37;;;9.30;1.00;;;;;;4945024;29;20194;-69
2023/03/05 13:04:09;;;;;;;2.47;1.30;;;9.40;1.00;;;;;;4935067;29;22347;-70
2023/03/05 13:06:38;;;;;;;2.27;1.40;;;9.40;1.00;;;;;;4945243;29;20689;-69
2023/03/05 13:09:21;;;;;;;1.30;0.90;;;9.60;1.00;;;;;;4937519;29;20258;-68
2023/03/05 13:11:51;;;;;;;3.00;1.10;;;9.80;1.00;;;;;;4938743;29;21097;-69
2023/03/05 13:14:30;;;;;;;2.60;1.60;;;9.90;1.00;;;;;;4938583;29;20249;-69
2023/03/05 13:16:57;;;;;;;3.07;1.40;;;10.00;1.00;;;;;;4938563;28;20199;-69